Fahri Eksioglu — TCUH — position and weather

sailwx.info

Track history (hours):
 
Tides and Currents Weather Stations Pressure Air Temp Water Temp Dewpoint Dewpoint Depression Visibility Wind Speed Wind Dir Waves Ship Positions

Fahri Eksioglu

Last reported at 2014-Jul-25 12:23 UTC. Time now 2014-Jul-28 16:30 UTC.
Position N 40°45' E 029°29'.

Length 89 m; draft 5.8 m.

Type: Cargo ship. MMSI: 271000450.

Date/timePositionNaut miles runAvg speedWind from/ knotsBaromVisibWave heightAir tempDewpointWater temp
2014-Jul-25 12:23N 40°45' E 029°29'2 0.9
2014-Jul-25 10:25N 40°46' E 029°27'0 0.0
2014-Jul-24 23:26N 40°46' E 029°27'0 0.1
2014-Jul-24 22:28N 40°46' E 029°27'0 0.0
2014-Jul-24 19:05N 40°46' E 029°27'0 0.0
2014-Jul-24 16:32N 40°46' E 029°27'0 0.0
2014-Jul-24 14:29N 40°46' E 029°27'0 0.0
2014-Jul-23 18:20N 40°46' E 029°27'0 0.0
2014-Jul-23 16:20N 40°46' E 029°27'0 0.0
2014-Jul-23 13:27N 40°46' E 029°27'0 0.0
2014-Jul-23 11:13N 40°46' E 029°27'0 0.0
2014-Jul-23 09:21N 40°46' E 029°27'0 0.0
2014-Jul-23 05:30N 40°45' E 029°27'0 0.0
2014-Jul-23 03:19N 40°45' E 029°27'0 0.0
2014-Jul-22 21:29N 40°46' E 029°27'0 0.0
2014-Jul-22 20:26N 40°45' E 029°27'0 0.0
2014-Jul-22 19:29N 40°46' E 029°27'0 0.0
2014-Jul-22 18:32N 40°45' E 029°27'0 0.0
2014-Jul-22 17:32N 40°45' E 029°27'0 0.0
2014-Jul-22 16:27N 40°45' E 029°27'5 5.7
2014-Jul-22 15:33N 40°44' E 029°21'10 9.6
2014-Jul-22 14:33N 40°44' E 029°08'  
2014-Jul-18 15:27N 41°25' E 029°34'232 8.0
2014-Jul-17 10:33N 42°51' E 034°24'8 8.0
2014-Jul-17 09:34N 42°56' E 034°33'9 8.5
2014-Jul-17 08:34N 43°00' E 034°43'11 8.6
2014-Jul-17 07:16N 43°07' E 034°55'6 8.8
2014-Jul-17 06:34N 43°11' E 035°02'9 8.8
2014-Jul-17 05:30N 43°16' E 035°13'10 8.9
2014-Jul-17 04:26N 43°22' E 035°23'17 9.0
2014-Jul-17 02:34N 43°32' E 035°42'9 9.0
2014-Jul-17 01:33N 43°37' E 035°52'9 9.2
2014-Jul-17 00:34N 43°42' E 036°03'9 9.3
2014-Jul-16 23:34N 43°48' E 036°13'10 9.2
2014-Jul-16 22:31N 43°53' E 036°24'47 9.5
2014-Jul-16 17:34N 44°21' E 037°17'  
Track history (hours):
 
Tides and Currents Weather Stations Pressure Air Temp Water Temp Dewpoint Dewpoint Depression Visibility Wind Speed Wind Dir Waves Ship Positions

Fahri Eksioglu

Last reported at 2014-Jul-25 12:23 UTC. Time now 2014-Jul-28 16:30 UTC.
Position N 40°45' E 029°29'.

Length 89 m; draft 5.8 m.

Type: Cargo ship. MMSI: 271000450.

Date/timePositionNaut miles runAvg speedWind from/ knotsBaromVisibWave heightAir tempDewpointWater temp
2014-Jul-25 12:23N 40°45' E 029°29'2 0.9
2014-Jul-25 10:25N 40°46' E 029°27'0 0.0
2014-Jul-24 23:26N 40°46' E 029°27'0 0.1
2014-Jul-24 22:28N 40°46' E 029°27'0 0.0
2014-Jul-24 19:05N 40°46' E 029°27'0 0.0
2014-Jul-24 16:32N 40°46' E 029°27'0 0.0
2014-Jul-24 14:29N 40°46' E 029°27'0 0.0
2014-Jul-23 18:20N 40°46' E 029°27'0 0.0
2014-Jul-23 16:20N 40°46' E 029°27'0 0.0
2014-Jul-23 13:27N 40°46' E 029°27'0 0.0
2014-Jul-23 11:13N 40°46' E 029°27'0 0.0
2014-Jul-23 09:21N 40°46' E 029°27'0 0.0
2014-Jul-23 05:30N 40°45' E 029°27'0 0.0
2014-Jul-23 03:19N 40°45' E 029°27'0 0.0
2014-Jul-22 21:29N 40°46' E 029°27'0 0.0
2014-Jul-22 20:26N 40°45' E 029°27'0 0.0
2014-Jul-22 19:29N 40°46' E 029°27'0 0.0
2014-Jul-22 18:32N 40°45' E 029°27'0 0.0
2014-Jul-22 17:32N 40°45' E 029°27'0 0.0
2014-Jul-22 16:27N 40°45' E 029°27'5 5.7
2014-Jul-22 15:33N 40°44' E 029°21'10 9.6
2014-Jul-22 14:33N 40°44' E 029°08'  
2014-Jul-18 15:27N 41°25' E 029°34'232 8.0
2014-Jul-17 10:33N 42°51' E 034°24'8 8.0
2014-Jul-17 09:34N 42°56' E 034°33'9 8.5
2014-Jul-17 08:34N 43°00' E 034°43'11 8.6
2014-Jul-17 07:16N 43°07' E 034°55'6 8.8
2014-Jul-17 06:34N 43°11' E 035°02'9 8.8
2014-Jul-17 05:30N 43°16' E 035°13'10 8.9
2014-Jul-17 04:26N 43°22' E 035°23'17 9.0
2014-Jul-17 02:34N 43°32' E 035°42'9 9.0
2014-Jul-17 01:33N 43°37' E 035°52'9 9.2
2014-Jul-17 00:34N 43°42' E 036°03'9 9.3
2014-Jul-16 23:34N 43°48' E 036°13'10 9.2
2014-Jul-16 22:31N 43°53' E 036°24'47 9.5
2014-Jul-16 17:34N 44°21' E 037°17'  

Dump ship's entire track history